createdAt,value
2022-09-15T00:05:32.509Z,13.8
2022-09-15T00:10:54.102Z,13.8
2022-09-15T00:16:33.131Z,13.7
2022-09-15T00:22:11.693Z,13.6
2022-09-15T00:27:48.117Z,13.5
2022-09-15T00:33:25.592Z,13.4
2022-09-15T00:39:03.496Z,13.4
2022-09-15T00:44:40.236Z,13.4
2022-09-15T00:50:41.527Z,13.3
2022-09-15T00:56:19.208Z,13.3
2022-09-15T01:01:40.389Z,13.2
2022-09-15T01:07:02.928Z,13.1
2022-09-15T01:12:40.621Z,13.1
2022-09-15T01:18:17.301Z,13
2022-09-15T01:23:27.406Z,12.9
2022-09-15T01:29:17.452Z,12.9
2022-09-15T01:34:53.553Z,12.8
2022-09-15T01:40:31.125Z,12.8
2022-09-15T01:45:54.090Z,12.8
2022-09-15T01:51:30.702Z,12.8
2022-09-15T01:57:07.065Z,12.8
2022-09-15T02:02:44.805Z,12.9
2022-09-15T02:08:21.595Z,12.9
2022-09-15T02:13:43.217Z,12.8
2022-09-15T02:18:19.154Z,12.7
2022-09-15T02:23:56.397Z,12.6
2022-09-15T02:29:33.650Z,12.6
2022-09-15T02:35:15.837Z,12.7
2022-09-15T02:40:52.751Z,12.6
2022-09-15T02:46:31.246Z,12.6
2022-09-15T02:52:08.361Z,12.6
2022-09-15T02:57:46.280Z,12.6
2022-09-15T03:03:24.269Z,12.5
2022-09-15T03:08:48.227Z,12.4
2022-09-15T03:14:25.487Z,12.3
2022-09-15T03:19:47.913Z,12.3
2022-09-15T03:25:25.564Z,12.1
2022-09-15T03:31:03.238Z,12
2022-09-15T03:36:43.899Z,11.9
2022-09-15T03:42:21.521Z,11.9
2022-09-15T03:48:02.859Z,11.8
2022-09-15T03:53:40.029Z,11.8
2022-09-15T03:59:02.331Z,11.8
2022-09-15T04:04:45.791Z,11.8
2022-09-15T04:10:22.093Z,11.8
2022-09-15T04:16:04.327Z,11.8
2022-09-15T04:21:42.217Z,11.8
2022-09-15T04:27:22.715Z,11.9
2022-09-15T04:33:03.707Z,11.9
2022-09-15T04:38:40.414Z,11.9
2022-09-15T04:44:17.534Z,12.1
2022-09-15T04:49:55.624Z,12.2
2022-09-15T04:55:34.933Z,12.3
2022-09-15T05:01:11.993Z,12.6
2022-09-15T05:06:50.629Z,13.3
2022-09-15T05:12:32.054Z,14.1
2022-09-15T05:18:09.930Z,15.5
2022-09-15T05:23:53.393Z,17.1
2022-09-15T05:35:09.496Z,20.6
2022-09-15T05:40:47.744Z,22.6
2022-09-15T05:46:25.280Z,24.8
2022-09-15T05:52:02.535Z,27.3
2022-09-15T05:57:40.649Z,29.8
2022-09-15T06:03:17.363Z,32.6
2022-09-15T06:08:57.902Z,35.5
2022-09-15T06:14:36.199Z,38.5
2022-09-15T06:20:13.669Z,41.6
2022-09-15T06:25:52.781Z,44.8
2022-09-15T06:31:30.308Z,48
2022-09-15T06:37:08.099Z,51.2
2022-09-15T06:43:10.969Z,54.4
2022-09-15T06:49:08.487Z,55
2022-09-15T06:54:45.828Z,49
2022-09-15T07:00:23.222Z,51.4
2022-09-15T07:06:05.162Z,55.8
2022-09-15T07:11:47.328Z,53.5
2022-09-15T07:17:25.748Z,49.9
2022-09-15T07:23:03.537Z,55.1
2022-09-15T07:28:41.430Z,55.9
2022-09-15T07:34:23.021Z,50.4
2022-09-15T07:40:03.529Z,58.3
2022-09-15T07:45:45.206Z,55.6
2022-09-15T07:51:22.953Z,52.3
2022-09-15T07:57:00.884Z,59.6
2022-09-15T08:02:24.192Z,55.2
2022-09-15T08:08:05.172Z,55.4
2022-09-15T08:13:53.734Z,58.7
2022-09-15T08:19:31.123Z,55.1
2022-09-15T08:24:37.556Z,54.5
2022-09-15T08:30:00.004Z,61.4
2022-09-15T08:35:38.352Z,57.9
2022-09-15T08:41:15.734Z,59.5
2022-09-15T08:47:00.113Z,59.6
2022-09-15T08:53:00.974Z,59.1
2022-09-15T08:58:40.877Z,59.8
2022-09-15T09:04:19.980Z,59.8
2022-09-15T09:09:41.802Z,60.5
2022-09-15T09:15:04.804Z,61.9
2022-09-15T09:20:44.318Z,62.4
2022-09-15T09:26:44.469Z,61.3
2022-09-15T09:32:07.459Z,62
2022-09-15T09:37:30.904Z,62.4
2022-09-15T09:43:08.467Z,62.6
2022-09-15T09:48:47.502Z,64.1
2022-09-15T09:54:25.648Z,64.7
2022-09-15T10:00:02.800Z,61.6
2022-09-15T10:05:41.817Z,62.2
2022-09-15T10:11:20.196Z,61.1
2022-09-15T10:16:58.093Z,63.4
2022-09-15T10:22:37.223Z,64.7
2022-09-15T10:28:03.443Z,65.6
2022-09-15T10:33:26.439Z,66
2022-09-15T10:39:04.805Z,67.5
2022-09-15T10:44:43.281Z,68.1
2022-09-15T10:50:21.651Z,66.4
2022-09-15T10:56:22.897Z,64.6
2022-09-15T11:02:01.751Z,60.9
2022-09-15T11:07:41.461Z,56.8
2022-09-15T11:13:24.584Z,54.6
2022-09-15T11:19:03.188Z,53.6
2022-09-15T11:24:41.225Z,54.3
2022-09-15T11:30:19.151Z,57.3
2022-09-15T11:35:58.119Z,63.4
2022-09-15T11:41:39.563Z,68.4
2022-09-15T11:47:17.517Z,63.5
2022-09-15T11:52:55.087Z,65.6
2022-09-15T11:58:38.542Z,65.3
2022-09-15T12:04:16.762Z,65.6
2022-09-15T12:09:38.845Z,64.6
2022-09-15T12:15:22.668Z,64.9
2022-09-15T12:21:26.818Z,65
2022-09-15T12:27:04.561Z,64.8
2022-09-15T12:32:45.887Z,64.5
2022-09-15T12:38:23.756Z,65
2022-09-15T12:43:46.711Z,64.4
2022-09-15T12:49:24.673Z,63.9
2022-09-15T12:55:03.801Z,63.2
2022-09-15T13:01:00.540Z,67.9
2022-09-15T13:06:46.669Z,62.3
2022-09-15T13:12:29.373Z,61.4
2022-09-15T13:18:07.810Z,63.9
2022-09-15T13:23:45.755Z,65.9
2022-09-15T13:29:26.800Z,59.9
2022-09-15T13:36:13.565Z,59.1
2022-09-15T13:43:34.515Z,60.9
2022-09-15T13:49:15.349Z,63
2022-09-15T13:54:53.300Z,64.1
2022-09-15T14:02:17.467Z,60.8
2022-09-15T14:07:57.922Z,57.2
2022-09-15T14:13:38.635Z,54
2022-09-15T14:19:22.439Z,50.9
2022-09-15T14:25:04.694Z,49
2022-09-15T14:30:45.837Z,48.4
2022-09-15T14:36:31.814Z,48.9
2022-09-15T14:42:10.347Z,48.4
